createdAt,value
2019-02-10T00:00:43.973Z,0.23
2019-02-10T00:03:12.647Z,0.21
2019-02-10T00:05:41.351Z,0.11
2019-02-10T00:08:10.025Z,0.06
2019-02-10T00:10:38.699Z,0.18
2019-02-10T00:13:26.382Z,0.13
2019-02-10T00:15:55.652Z,0.13
2019-02-10T00:18:24.544Z,0.04
2019-02-10T00:20:53.220Z,0.01
2019-02-10T00:23:22.005Z,0.01
2019-02-10T00:25:50.721Z,0.08
2019-02-10T00:28:19.403Z,0.19
2019-02-10T00:30:48.079Z,0.26
2019-02-10T00:33:16.781Z,0.39
2019-02-10T00:35:45.456Z,0.27
2019-02-10T00:38:14.147Z,0.16
2019-02-10T00:40:42.921Z,0.09
2019-02-10T00:43:11.716Z,0.17
2019-02-10T00:45:40.715Z,0.13
2019-02-10T00:48:09.399Z,0.10
2019-02-10T00:50:38.075Z,0.28
2019-02-10T00:53:06.785Z,0.23
2019-02-10T00:55:35.425Z,0.16
2019-02-10T00:58:04.105Z,0.21
2019-02-10T01:00:32.789Z,0.14
2019-02-10T01:03:01.475Z,0.08
2019-02-10T01:05:30.132Z,0.10
2019-02-10T01:07:58.810Z,0.06
2019-02-10T01:10:27.488Z,0.06
2019-02-10T01:12:56.182Z,0.11
2019-02-10T01:15:24.862Z,0.06
2019-02-10T01:17:53.547Z,0.08
2019-02-10T01:20:22.217Z,0.11
2019-02-10T01:22:50.904Z,0.20
2019-02-10T01:25:19.750Z,0.12
2019-02-10T01:27:48.425Z,0.04
2019-02-10T01:30:17.088Z,0.11
2019-02-10T01:32:45.769Z,0.22
2019-02-10T01:35:15.416Z,0.12
2019-02-10T01:37:44.100Z,0.09
2019-02-10T01:40:12.886Z,0.03
2019-02-10T01:42:41.672Z,0.15
2019-02-10T01:45:12.750Z,0.16
2019-02-10T01:47:41.638Z,0.15
2019-02-10T01:50:11.778Z,0.20
2019-02-10T01:52:40.461Z,0.14
2019-02-10T01:55:13.974Z,0.13
2019-02-10T01:57:43.087Z,0.04
2019-02-10T02:00:14.691Z,0.02
2019-02-10T02:02:43.377Z,0.12
2019-02-10T02:05:12.242Z,0.11
2019-02-10T02:07:40.918Z,0.16
2019-02-10T02:10:13.735Z,0.23
2019-02-10T02:12:42.395Z,0.12
2019-02-10T02:15:15.780Z,0.09
2019-02-10T02:17:44.497Z,0.13
2019-02-10T02:20:13.651Z,0.20
2019-02-10T02:22:42.624Z,0.20
2019-02-10T02:25:14.059Z,0.18
2019-02-10T02:27:42.766Z,0.11
2019-02-10T02:30:14.162Z,0.03
2019-02-10T02:32:42.852Z,-0.01
2019-02-10T02:35:11.667Z,-0.14
2019-02-10T02:37:40.348Z,-0.16
2019-02-10T02:40:10.623Z,-0.11
2019-02-10T02:42:39.589Z,-0.11
2019-02-10T02:45:10.737Z,-0.11
2019-02-10T02:47:39.619Z,-0.08
2019-02-10T02:50:11.989Z,-0.17
2019-02-10T02:52:40.694Z,-0.15
2019-02-10T02:55:10.543Z,-0.12
2019-02-10T02:57:39.246Z,-0.16
2019-02-10T03:00:10.526Z,-0.21
2019-02-10T03:02:39.200Z,-0.19
2019-02-10T03:05:11.208Z,-0.22
2019-02-10T03:07:39.986Z,-0.21
2019-02-10T03:10:09.889Z,-0.17
2019-02-10T03:12:38.584Z,-0.20
2019-02-10T03:15:09.120Z,-0.25
2019-02-10T03:17:37.801Z,-0.40
2019-02-10T03:20:08.377Z,-0.36
2019-02-10T03:22:37.049Z,-0.32
2019-02-10T03:25:07.901Z,-0.38
2019-02-10T03:27:36.572Z,-0.52
2019-02-10T03:30:07.866Z,-0.54
2019-02-10T03:32:36.547Z,-0.33
2019-02-10T03:35:09.240Z,-0.33
2019-02-10T03:37:37.635Z,-0.47
2019-02-10T03:40:10.654Z,-0.42
2019-02-10T03:42:39.292Z,-0.53
2019-02-10T03:45:09.362Z,-0.53
2019-02-10T03:47:38.039Z,-0.58
2019-02-10T03:50:08.629Z,-0.55
2019-02-10T03:52:37.308Z,-0.50
2019-02-10T03:55:08.075Z,-0.59
2019-02-10T03:57:36.890Z,-0.52
2019-02-10T04:00:13.342Z,-0.44
2019-02-10T04:02:42.405Z,-0.42
2019-02-10T04:05:11.119Z,-0.43
2019-02-10T04:07:39.818Z,-0.31
2019-02-10T04:10:10.357Z,-0.24
2019-02-10T04:12:39.048Z,-0.18
2019-02-10T04:15:08.427Z,-0.33
2019-02-10T04:17:39.867Z,-0.29
2019-02-10T04:20:09.743Z,-0.44
2019-02-10T04:22:38.404Z,-0.45
2019-02-10T04:25:07.991Z,-0.33
2019-02-10T04:27:36.666Z,-0.35
2019-02-10T04:30:09.263Z,-0.23
2019-02-10T04:32:38.361Z,-0.31
2019-02-10T04:35:07.133Z,-0.54
2019-02-10T04:37:45.053Z,-0.58
2019-02-10T04:40:07.513Z,-0.61
2019-02-10T04:42:36.192Z,-0.58
2019-02-10T04:45:05.268Z,-0.54
2019-02-10T04:47:33.942Z,-0.47
2019-02-10T04:50:02.628Z,-0.53
2019-02-10T04:52:31.316Z,-0.57
2019-02-10T04:55:00.001Z,-0.50
2019-02-10T04:57:28.694Z,-0.34
2019-02-10T04:59:57.413Z,-0.38
2019-02-10T05:02:26.137Z,-0.28
2019-02-10T05:04:54.824Z,-0.27
2019-02-10T05:07:23.523Z,-0.36
2019-02-10T05:09:52.210Z,-0.36
2019-02-10T05:12:21.805Z,-0.38
2019-02-10T05:14:50.496Z,-0.36
2019-02-10T05:17:19.189Z,-0.31
2019-02-10T05:19:47.870Z,-0.25
2019-02-10T05:22:16.533Z,-0.13
2019-02-10T05:24:45.200Z,-0.18
2019-02-10T05:27:13.887Z,-0.19
2019-02-10T05:29:42.585Z,-0.20
2019-02-10T05:32:11.261Z,-0.23
2019-02-10T05:34:39.927Z,-0.23
2019-02-10T05:37:08.619Z,-0.14
2019-02-10T05:39:37.287Z,-0.10
2019-02-10T05:42:05.988Z,-0.12
2019-02-10T05:44:34.656Z,-0.15
2019-02-10T05:47:03.378Z,-0.20
2019-02-10T05:49:32.041Z,-0.20
2019-02-10T05:52:00.731Z,-0.20
2019-02-10T05:54:29.419Z,-0.02
2019-02-10T05:56:58.102Z,-0.09
2019-02-10T05:59:26.784Z,-0.02
2019-02-10T06:02:01.523Z,0.12
2019-02-10T06:04:31.048Z,0.22
2019-02-10T06:07:02.681Z,0.35
2019-02-10T06:09:31.399Z,0.42
2019-02-10T06:12:00.275Z,0.58
2019-02-10T06:14:28.950Z,0.72
2019-02-10T06:16:57.635Z,0.94
2019-02-10T06:19:26.320Z,1.05
2019-02-10T06:21:54.982Z,1.04
2019-02-10T06:24:23.660Z,1.03
2019-02-10T06:26:52.336Z,1.14
2019-02-10T06:29:21.011Z,1.18
2019-02-10T06:31:49.846Z,1.24
2019-02-10T06:34:18.527Z,1.35
2019-02-10T06:36:47.209Z,1.54
2019-02-10T06:39:15.865Z,1.67
2019-02-10T06:41:44.537Z,2.00
2019-02-10T06:44:14.645Z,2.39
2019-02-10T06:46:43.310Z,3.46
2019-02-10T06:49:11.990Z,3.76
2019-02-10T06:51:40.657Z,3.92
2019-02-10T06:54:09.418Z,3.85
2019-02-10T06:56:38.088Z,3.18
2019-02-10T06:59:08.381Z,3.08
2019-02-10T07:01:38.614Z,3.01
2019-02-10T07:04:10.958Z,2.95
2019-02-10T07:06:39.645Z,2.94
2019-02-10T07:09:08.323Z,2.96
2019-02-10T07:11:36.988Z,2.94
2019-02-10T07:14:08.000Z,3.05
2019-02-10T07:16:48.560Z,3.24
2019-02-10T07:19:52.889Z,3.27
2019-02-10T07:22:36.537Z,3.36
2019-02-10T07:25:17.157Z,3.29
2019-02-10T07:28:04.466Z,3.39
2019-02-10T07:30:52.417Z,3.23
2019-02-10T07:33:29.899Z,3.19
2019-02-10T07:36:07.346Z,3.09
2019-02-10T07:38:59.831Z,3.12
2019-02-10T07:41:55.180Z,3.12
2019-02-10T07:44:26.769Z,3.27
2019-02-10T07:47:13.198Z,3.35
2019-02-10T07:50:02.999Z,3.44
2019-02-10T07:52:37.606Z,3.51
2019-02-10T07:55:18.150Z,3.55
2019-02-10T07:58:23.391Z,3.64
2019-02-10T08:01:03.859Z,3.72
2019-02-10T08:03:35.483Z,3.93
2019-02-10T08:06:19.151Z,3.90
2019-02-10T08:09:07.191Z,4.09
2019-02-10T08:11:41.573Z,4.18
2019-02-10T08:14:15.877Z,4.20
2019-02-10T08:17:05.623Z,4.34
2019-02-10T08:20:01.007Z,4.24
2019-02-10T08:22:50.863Z,4.29
2019-02-10T08:25:43.343Z,4.30
2019-02-10T08:28:25.477Z,4.36
2019-02-10T08:30:58.933Z,4.51
2019-02-10T08:33:42.444Z,4.64
2019-02-10T08:36:22.930Z,4.74
2019-02-10T08:39:00.322Z,4.71
2019-02-10T08:41:48.542Z,4.74
2019-02-10T08:44:45.903Z,4.93
2019-02-10T08:47:23.138Z,4.94
2019-02-10T08:50:02.102Z,5.12
2019-02-10T08:52:38.709Z,5.17
2019-02-10T08:55:07.887Z,5.35
2019-02-10T08:57:36.645Z,5.38
2019-02-10T09:00:11.400Z,5.61
2019-02-10T09:02:40.112Z,5.85
2019-02-10T09:05:09.101Z,6.03
2019-02-10T09:07:38.221Z,6.29
2019-02-10T09:10:10.076Z,6.37
2019-02-10T09:12:38.751Z,6.56
2019-02-10T09:15:10.337Z,6.69
2019-02-10T09:17:39.068Z,6.75
2019-02-10T09:20:10.586Z,6.71
2019-02-10T09:22:39.268Z,6.69
2019-02-10T09:25:10.665Z,6.92
2019-02-10T09:27:39.334Z,7.13
2019-02-10T09:30:11.307Z,7.26
2019-02-10T09:32:39.984Z,7.31
2019-02-10T09:35:09.306Z,7.34
2019-02-10T09:37:38.061Z,7.38
2019-02-10T09:40:09.753Z,7.48
2019-02-10T09:42:38.440Z,7.72
2019-02-10T09:45:09.922Z,7.87
2019-02-10T09:47:38.587Z,7.90
2019-02-10T09:50:11.258Z,8.18
2019-02-10T09:52:39.922Z,8.18
2019-02-10T09:55:09.427Z,8.26
2019-02-10T09:57:38.103Z,8.59
2019-02-10T10:00:09.950Z,8.62
2019-02-10T10:02:38.625Z,8.81
2019-02-10T10:05:09.391Z,8.98
2019-02-10T10:07:38.066Z,8.98
2019-02-10T10:10:09.358Z,8.87
2019-02-10T10:12:38.027Z,8.92
2019-02-10T10:15:09.895Z,9.11
2019-02-10T10:17:38.598Z,9.19
2019-02-10T10:20:10.468Z,9.31
2019-02-10T10:22:39.187Z,9.29
2019-02-10T10:25:09.363Z,9.29
2019-02-10T10:27:39.601Z,9.38
2019-02-10T10:30:13.908Z,9.54
2019-02-10T10:32:42.565Z,9.62
2019-02-10T10:35:11.333Z,9.68
2019-02-10T10:37:40.009Z,9.79
2019-02-10T10:40:11.149Z,9.79
2019-02-10T10:42:39.934Z,9.79
2019-02-10T10:45:15.804Z,10.03
2019-02-10T10:47:44.482Z,10.40
2019-02-10T10:50:14.653Z,10.77
2019-02-10T10:52:43.322Z,10.87
2019-02-10T10:55:13.303Z,10.89
2019-02-10T10:57:41.997Z,11.51
2019-02-10T11:00:13.183Z,14.99
2019-02-10T11:02:41.871Z,19.17
2019-02-10T11:05:11.245Z,21.64
2019-02-10T11:07:39.935Z,24.63
2019-02-10T11:10:10.826Z,25.69
2019-02-10T11:12:39.523Z,26.36
2019-02-10T11:15:16.302Z,28.27
2019-02-10T11:17:45.006Z,28.45
2019-02-10T11:20:13.796Z,29.63
2019-02-10T11:22:42.852Z,28.72
2019-02-10T11:25:12.300Z,28.45
2019-02-10T11:27:41.010Z,28.90
2019-02-10T11:30:12.539Z,29.13
2019-02-10T11:32:41.223Z,30.50
2019-02-10T11:35:10.591Z,31.85
2019-02-10T11:37:39.279Z,32.19
2019-02-10T11:40:12.571Z,32.72
2019-02-10T11:42:41.246Z,33.21
2019-02-10T11:45:14.192Z,30.31
2019-02-10T11:47:42.867Z,28.65
2019-02-10T11:50:13.017Z,29.40
2019-02-10T11:52:41.713Z,30.42
2019-02-10T11:55:11.297Z,29.03
2019-02-10T11:57:41.280Z,30.37
2019-02-10T12:00:13.163Z,31.57
2019-02-10T12:02:41.831Z,33.05
2019-02-10T12:05:11.933Z,31.32
2019-02-10T12:07:40.589Z,31.33
2019-02-10T12:10:11.397Z,29.75
2019-02-10T12:12:40.063Z,30.02
2019-02-10T12:15:13.944Z,29.78
2019-02-10T12:17:42.621Z,29.79
2019-02-10T12:20:12.807Z,31.16
2019-02-10T12:22:49.673Z,27.54
2019-02-10T12:25:11.982Z,29.98
2019-02-10T12:27:40.653Z,28.68
2019-02-10T12:30:18.507Z,29.87
2019-02-10T12:32:47.220Z,31.04
2019-02-10T12:35:15.888Z,31.27
2019-02-10T12:37:44.561Z,29.92
2019-02-10T12:40:13.331Z,28.96
2019-02-10T12:42:41.998Z,29.47
2019-02-10T12:45:12.270Z,31.02
2019-02-10T12:47:40.964Z,30.73
2019-02-10T12:50:16.042Z,31.50
2019-02-10T12:52:44.892Z,29.67
2019-02-10T12:55:13.770Z,28.66
2019-02-10T12:57:42.555Z,25.28
2019-02-10T13:00:18.847Z,26.35
2019-02-10T13:02:47.522Z,26.05
2019-02-10T13:05:16.204Z,24.40
2019-02-10T13:07:44.888Z,25.46
2019-02-10T13:10:17.391Z,25.54
2019-02-10T13:12:45.351Z,26.46
2019-02-10T13:15:14.256Z,27.38
2019-02-10T13:17:43.021Z,27.84
2019-02-10T13:20:12.826Z,26.50
2019-02-10T13:22:41.544Z,25.88
2019-02-10T13:25:12.076Z,26.87
2019-02-10T13:27:40.755Z,27.67
2019-02-10T13:30:12.322Z,29.30
2019-02-10T13:32:40.990Z,30.01
2019-02-10T13:35:09.673Z,29.01
2019-02-10T13:37:38.390Z,28.52
2019-02-10T13:40:18.895Z,26.88
2019-02-10T13:42:47.570Z,27.62
2019-02-10T13:45:16.365Z,28.39
2019-02-10T13:47:45.012Z,28.36
2019-02-10T13:50:18.515Z,28.52
2019-02-10T13:52:47.290Z,27.51
2019-02-10T13:55:16.850Z,26.30
2019-02-10T13:57:45.529Z,26.70
2019-02-10T14:00:16.404Z,25.92
2019-02-10T14:02:45.186Z,26.29
2019-02-10T14:05:13.911Z,26.27
2019-02-10T14:07:42.598Z,26.17
2019-02-10T14:10:16.173Z,25.92
2019-02-10T14:12:45.064Z,25.99
2019-02-10T14:15:15.686Z,23.73
2019-02-10T14:17:44.501Z,24.04
2019-02-10T14:20:18.132Z,23.94
2019-02-10T14:22:46.909Z,23.45
2019-02-10T14:25:15.686Z,21.25
2019-02-10T14:27:44.367Z,19.52
2019-02-10T14:30:17.157Z,19.39
2019-02-10T14:32:45.969Z,18.96
2019-02-10T14:35:14.695Z,18.68
2019-02-10T14:37:43.619Z,17.96
2019-02-10T14:40:12.390Z,18.31
2019-02-10T14:42:41.076Z,19.65
2019-02-10T14:45:12.961Z,20.28
2019-02-10T14:47:41.906Z,20.01
2019-02-10T14:50:19.573Z,18.48
2019-02-10T14:52:48.256Z,17.43
2019-02-10T14:55:16.946Z,15.78
2019-02-10T14:57:45.641Z,15.30
2019-02-10T15:00:16.219Z,14.95
2019-02-10T15:02:44.919Z,14.69
2019-02-10T15:05:13.876Z,14.45
2019-02-10T15:07:42.559Z,14.11
2019-02-10T15:10:16.309Z,13.61
2019-02-10T15:12:44.983Z,13.26
2019-02-10T15:15:13.663Z,13.00
2019-02-10T15:17:42.525Z,12.54
2019-02-10T15:20:13.309Z,12.27
2019-02-10T15:22:42.011Z,11.96
2019-02-10T15:25:14.470Z,11.76
2019-02-10T15:27:43.155Z,11.59
2019-02-10T15:30:13.523Z,11.25
2019-02-10T15:32:42.306Z,10.97
2019-02-10T15:35:11.065Z,10.62
2019-02-10T15:37:39.753Z,10.40
2019-02-10T15:40:12.678Z,10.14
2019-02-10T15:42:41.411Z,9.99
2019-02-10T15:45:12.641Z,9.91
2019-02-10T15:47:41.307Z,9.73
2019-02-10T15:50:12.087Z,9.46
2019-02-10T15:52:40.771Z,9.30
2019-02-10T15:55:14.093Z,9.10
2019-02-10T15:57:42.839Z,8.91
2019-02-10T16:00:15.442Z,8.66
2019-02-10T16:02:44.063Z,8.42
2019-02-10T16:05:12.759Z,8.39
2019-02-10T16:07:41.432Z,8.32
2019-02-10T16:10:11.475Z,8.19
2019-02-10T16:12:40.149Z,8.00
2019-02-10T16:15:11.151Z,7.83
2019-02-10T16:17:39.824Z,7.75
2019-02-10T16:20:13.515Z,7.65
2019-02-10T16:22:42.167Z,7.53
2019-02-10T16:25:11.626Z,7.36
2019-02-10T16:27:40.290Z,7.19
2019-02-10T16:30:14.820Z,7.16
2019-02-10T16:32:49.667Z,7.12
2019-02-10T16:35:13.936Z,7.15
2019-02-10T16:37:42.590Z,7.12
2019-02-10T16:40:16.634Z,7.05
2019-02-10T16:42:45.539Z,6.98
2019-02-10T16:45:14.652Z,6.90
2019-02-10T16:47:43.446Z,6.83
2019-02-10T16:50:16.208Z,6.89
2019-02-10T16:52:44.998Z,6.88
2019-02-10T16:55:21.015Z,6.96
2019-02-10T16:57:49.689Z,7.02
2019-02-10T17:00:18.653Z,7.12
2019-02-10T17:02:47.337Z,7.10
2019-02-10T17:05:16.461Z,7.09
2019-02-10T17:07:45.145Z,7.04
2019-02-10T17:10:16.743Z,6.92
2019-02-10T17:12:45.406Z,6.88
2019-02-10T17:15:15.174Z,6.88
2019-02-10T17:17:43.849Z,6.99
2019-02-10T17:20:13.442Z,7.01
2019-02-10T17:22:42.113Z,7.11
2019-02-10T17:25:22.496Z,7.17
2019-02-10T17:27:51.165Z,7.21
2019-02-10T17:30:19.846Z,7.10
2019-02-10T17:32:48.549Z,7.11
2019-02-10T17:35:17.227Z,7.12
2019-02-10T17:37:45.903Z,7.16
2019-02-10T17:40:29.222Z,7.11
2019-02-10T17:42:57.900Z,7.00
2019-02-10T17:45:26.575Z,6.89
2019-02-10T17:47:55.262Z,6.87
2019-02-10T17:50:23.982Z,7.07
2019-02-10T17:52:52.650Z,7.16
2019-02-10T17:55:21.333Z,7.09
2019-02-10T17:57:50.045Z,6.97
2019-02-10T18:00:20.433Z,7.12
2019-02-10T18:02:49.158Z,7.14
2019-02-10T18:05:17.867Z,7.17
2019-02-10T18:07:46.533Z,7.17
2019-02-10T18:10:15.702Z,7.14
2019-02-10T18:12:44.389Z,7.10
2019-02-10T18:15:14.663Z,7.08
2019-02-10T18:17:47.639Z,7.06
2019-02-10T18:20:17.888Z,7.06
2019-02-10T18:23:00.169Z,7.03
2019-02-10T18:25:42.475Z,7.09
2019-02-10T18:28:29.086Z,7.07
2019-02-10T18:30:59.324Z,7.02
2019-02-10T18:33:38.615Z,7.06
2019-02-10T18:36:11.753Z,6.98
2019-02-10T18:38:42.027Z,6.92
2019-02-10T18:41:15.401Z,6.74
2019-02-10T18:43:51.683Z,6.59
2019-02-10T18:46:21.974Z,6.55
2019-02-10T18:48:52.248Z,6.52
2019-02-10T18:51:28.353Z,6.43
2019-02-10T18:54:13.877Z,6.44
2019-02-10T18:56:50.239Z,6.47
2019-02-10T18:59:36.843Z,6.43
2019-02-10T19:02:07.512Z,6.36
2019-02-10T19:04:40.733Z,6.46
2019-02-10T19:07:11.073Z,6.40
2019-02-10T19:09:41.311Z,6.25
2019-02-10T19:12:11.550Z,6.18
2019-02-10T19:14:44.386Z,6.14
2019-02-10T19:17:16.682Z,5.99
2019-02-10T19:19:46.920Z,5.91
2019-02-10T19:22:18.634Z,5.85
2019-02-10T19:24:48.866Z,5.83
2019-02-10T19:27:19.100Z,5.87
2019-02-10T19:29:52.528Z,5.93
2019-02-10T19:32:29.070Z,5.83
2019-02-10T19:34:59.314Z,5.89
2019-02-10T19:37:32.296Z,5.90
2019-02-10T19:40:11.386Z,5.74
2019-02-10T19:42:53.625Z,5.62
2019-02-10T19:45:27.016Z,5.55
2019-02-10T19:47:57.302Z,5.41
2019-02-10T19:50:33.426Z,5.36
2019-02-10T19:53:19.228Z,5.36
2019-02-10T19:56:06.071Z,5.45
2019-02-10T19:58:39.536Z,5.44
2019-02-10T20:01:15.755Z,5.53
2019-02-10T20:03:46.334Z,5.54
2019-02-10T20:06:16.585Z,5.55
2019-02-10T20:09:02.097Z,5.48
2019-02-10T20:11:32.564Z,5.54
2019-02-10T20:14:17.874Z,5.57
2019-02-10T20:16:48.124Z,5.67
2019-02-10T20:19:18.399Z,5.75
2019-02-10T20:21:51.244Z,5.82
2019-02-10T20:24:27.328Z,5.78
2019-02-10T20:27:12.749Z,5.85
2019-02-10T20:29:42.987Z,5.78
2019-02-10T20:32:19.145Z,5.76
2019-02-10T20:34:52.267Z,5.70
2019-02-10T20:37:28.260Z,5.61
2019-02-10T20:40:14.741Z,5.76
2019-02-10T20:42:45.414Z,5.82
2019-02-10T20:45:15.666Z,5.72
2019-02-10T20:47:51.672Z,5.75
2019-02-10T20:50:22.110Z,5.75
2019-02-10T20:52:52.423Z,5.65
2019-02-10T20:55:22.680Z,5.59
2019-02-10T20:57:55.934Z,5.74
2019-02-10T21:00:26.180Z,5.65
2019-02-10T21:03:05.434Z,5.50
2019-02-10T21:05:41.863Z,5.45
2019-02-10T21:08:24.279Z,5.41
2019-02-10T21:10:55.107Z,5.36
2019-02-10T21:13:31.355Z,5.29
2019-02-10T21:16:01.594Z,5.30
2019-02-10T21:18:31.867Z,5.34
2019-02-10T21:21:08.447Z,5.28
2019-02-10T21:23:50.608Z,5.21
2019-02-10T21:26:20.849Z,5.21
2019-02-10T21:28:51.084Z,5.26
2019-02-10T21:31:36.602Z,5.27
2019-02-10T21:34:06.845Z,5.26
2019-02-10T21:36:37.144Z,5.18
2019-02-10T21:39:20.817Z,5.12
2019-02-10T21:42:01.206Z,5.13
2019-02-10T21:44:47.623Z,5.02
2019-02-10T21:47:17.877Z,5.05
2019-02-10T21:49:46.533Z,5.06
2019-02-10T21:52:15.260Z,5.11
2019-02-10T21:54:44.094Z,5.11
2019-02-10T21:57:12.756Z,5.09
2019-02-10T21:59:41.449Z,4.98
2019-02-10T22:02:10.120Z,4.89
2019-02-10T22:04:38.816Z,4.81
2019-02-10T22:07:07.706Z,4.75
2019-02-10T22:09:36.395Z,4.84
2019-02-10T22:12:05.090Z,4.76
2019-02-10T22:14:34.059Z,4.71
2019-02-10T22:17:02.735Z,4.67
2019-02-10T22:19:31.398Z,4.62
2019-02-10T22:22:00.117Z,4.64
2019-02-10T22:24:28.787Z,4.64
2019-02-10T22:26:57.451Z,4.59
2019-02-10T22:29:26.257Z,4.46
2019-02-10T22:31:54.930Z,4.56
2019-02-10T22:34:23.602Z,4.65
2019-02-10T22:36:52.469Z,4.67
2019-02-10T22:39:21.145Z,4.70
2019-02-10T22:41:49.813Z,4.53
2019-02-10T22:44:18.636Z,4.46
2019-02-10T22:46:47.298Z,4.32
2019-02-10T22:49:15.981Z,4.28
2019-02-10T22:51:44.669Z,4.28
2019-02-10T22:54:13.366Z,4.30
2019-02-10T22:56:42.220Z,4.23
2019-02-10T22:59:10.899Z,4.18
2019-02-10T23:01:39.574Z,4.20
2019-02-10T23:04:08.309Z,4.14
2019-02-10T23:06:36.988Z,4.13
2019-02-10T23:09:09.242Z,4.20
2019-02-10T23:11:37.904Z,4.23
2019-02-10T23:14:06.609Z,4.24
2019-02-10T23:16:35.273Z,4.20
2019-02-10T23:19:03.940Z,4.24
2019-02-10T23:21:32.638Z,4.37
2019-02-10T23:24:01.309Z,4.36
2019-02-10T23:26:29.991Z,4.37
2019-02-10T23:28:58.753Z,4.32
2019-02-10T23:31:27.871Z,4.26
2019-02-10T23:33:56.536Z,4.29
2019-02-10T23:36:25.429Z,4.31
2019-02-10T23:38:54.140Z,4.28
2019-02-10T23:41:22.814Z,4.31
2019-02-10T23:43:51.519Z,4.36
2019-02-10T23:46:20.400Z,4.37
2019-02-10T23:48:49.085Z,4.40
2019-02-10T23:51:17.756Z,4.43
2019-02-10T23:53:46.559Z,4.38
2019-02-10T23:56:15.250Z,4.30
2019-02-10T23:58:43.947Z,4.18
